Time;durP1;ratioP1;P1;durP2;ratioP2;P2;SDS_P1;SDS_P2;PMS_P1;PMS_P2;Temp;Humidity;BMP_temperature;BMP_pressure;BME280_temperature;BME280_humidity;BME280_pressure;Samples;Min_cycle;Max_cycle;Signal;HPM_P1;HPM_P2
2023/08/13 00:00:26;;;;;;;1.50;0.90;;;18.90;98.20;;;;;;4999431;28;21104;-84
2023/08/13 00:02:53;;;;;;;1.50;1.00;;;18.90;98.20;;;;;;4984254;28;20484;-84
2023/08/13 00:05:20;;;;;;;1.50;0.90;;;18.90;98.20;;;;;;4997961;28;20461;-84
2023/08/13 00:07:48;;;;;;;1.50;0.90;;;18.90;98.20;;;;;;4989027;28;20776;-84
2023/08/13 00:10:15;;;;;;;1.50;0.90;;;18.90;98.20;;;;;;4999262;28;20476;-84
2023/08/13 00:12:42;;;;;;;1.47;0.90;;;18.90;98.20;;;;;;4986110;28;20497;-84
2023/08/13 00:15:10;;;;;;;1.50;0.90;;;18.90;98.20;;;;;;4995775;28;20465;-84
2023/08/13 00:17:37;;;;;;;1.50;0.90;;;18.90;98.20;;;;;;4984025;28;20581;-84
2023/08/13 00:20:05;;;;;;;1.50;1.00;;;18.90;98.20;;;;;;4994307;28;20547;-84
2023/08/13 00:22:32;;;;;;;1.50;0.90;;;18.90;98.20;;;;;;4986667;28;20489;-84
2023/08/13 00:25:01;;;;;;;1.50;0.90;;;18.90;98.20;;;;;;4994218;28;20467;-85
2023/08/13 00:27:27;;;;;;;1.50;0.90;;;18.90;98.20;;;;;;4977123;28;20517;-84
2023/08/13 00:29:54;;;;;;;1.50;0.90;;;18.90;98.20;;;;;;4995772;28;20622;-84
2023/08/13 00:32:21;;;;;;;1.50;0.90;;;18.80;98.20;;;;;;4980174;28;20485;-84
2023/08/13 00:34:48;;;;;;;1.50;1.00;;;18.80;98.20;;;;;;4997483;28;20479;-84
2023/08/13 00:37:16;;;;;;;1.50;0.90;;;18.80;98.20;;;;;;4986234;28;20884;-84
2023/08/13 00:39:43;;;;;;;1.50;0.90;;;18.80;98.20;;;;;;4996297;28;20545;-84
2023/08/13 00:42:11;;;;;;;1.50;0.90;;;18.70;98.20;;;;;;4984474;28;20719;-84
2023/08/13 00:44:38;;;;;;;1.50;0.90;;;18.70;98.20;;;;;;4997102;28;20476;-84
2023/08/13 00:47:05;;;;;;;1.50;0.97;;;18.70;98.20;;;;;;4983092;28;20496;-83
2023/08/13 00:49:33;;;;;;;1.50;0.93;;;18.70;98.20;;;;;;4995405;28;20617;-84
2023/08/13 00:52:01;;;;;;;1.50;0.97;;;18.70;98.20;;;;;;4983594;28;20493;-83
2023/08/13 00:54:28;;;;;;;1.50;0.90;;;18.70;98.20;;;;;;4995619;28;20465;-83
2023/08/13 00:56:55;;;;;;;1.50;1.00;;;18.70;98.20;;;;;;4978279;28;20478;-83
2023/08/13 00:59:24;;;;;;;1.50;0.90;;;18.80;98.20;;;;;;4991035;28;20955;-84
2023/08/13 01:01:51;;;;;;;1.50;0.90;;;18.80;98.20;;;;;;4984759;28;20493;-83
2023/08/13 01:04:18;;;;;;;1.50;0.90;;;18.80;98.20;;;;;;4995651;28;20472;-83
2023/08/13 01:06:54;;;;;;;1.50;0.90;;;18.80;98.20;;;;;;4985335;28;20540;-83
2023/08/13 01:09:33;;;;;;;1.50;1.00;;;18.80;98.20;;;;;;4990437;28;20491;-83
2023/08/13 01:12:07;;;;;;;1.50;1.00;;;18.80;98.20;;;;;;4982360;28;20492;-83
2023/08/13 01:14:41;;;;;;;1.50;0.90;;;18.70;98.20;;;;;;4996987;28;20576;-83
2023/08/13 01:17:08;;;;;;;1.50;0.93;;;18.70;98.20;;;;;;4984718;28;20515;-83
2023/08/13 01:19:35;;;;;;;1.50;0.90;;;18.70;98.20;;;;;;4996051;28;20456;-83
2023/08/13 01:22:02;;;;;;;1.50;1.00;;;18.70;98.20;;;;;;4985318;28;20517;-84
2023/08/13 01:24:30;;;;;;;1.50;1.00;;;18.60;98.20;;;;;;4996950;28;20465;-84
2023/08/13 01:27:08;;;;;;;1.50;1.00;;;18.60;98.20;;;;;;4987067;28;20479;-83
2023/08/13 01:29:42;;;;;;;1.50;0.90;;;18.60;98.20;;;;;;4994401;28;20464;-84
2023/08/13 01:32:12;;;;;;;1.50;0.90;;;18.50;98.20;;;;;;4986352;28;20488;-84
2023/08/13 01:34:40;;;;;;;1.50;0.90;;;18.50;98.20;;;;;;4993343;28;20473;-83
2023/08/13 01:37:08;;;;;;;1.50;0.90;;;18.50;98.20;;;;;;4983743;28;20869;-84
2023/08/13 01:39:36;;;;;;;1.50;0.90;;;18.50;98.20;;;;;;4997870;28;20500;-84
2023/08/13 01:42:04;;;;;;;1.50;0.90;;;18.50;98.20;;;;;;5007568;23;20507;-80
2023/08/13 01:44:30;;;;;;;1.50;1.00;;;18.50;98.20;;;;;;5033233;28;20968;-80
2023/08/13 01:46:57;;;;;;;1.50;0.90;;;18.50;98.20;;;;;;5018903;28;20577;-83
2023/08/13 01:49:24;;;;;;;1.50;0.90;;;18.50;98.20;;;;;;5030699;28;20941;-83
2023/08/13 01:51:51;;;;;;;1.50;0.90;;;18.50;98.20;;;;;;5013943;28;20491;-83
2023/08/13 01:54:18;;;;;;;1.50;1.03;;;18.40;98.20;;;;;;5009750;28;20552;-83
2023/08/13 01:56:46;;;;;;;1.50;1.10;;;18.40;98.20;;;;;;4998658;28;20512;-83
2023/08/13 01:59:13;;;;;;;1.50;0.90;;;18.40;98.20;;;;;;5008902;28;20980;-83
2023/08/13 02:01:40;;;;;;;1.50;1.00;;;18.30;98.20;;;;;;4999219;28;20480;-82
2023/08/13 02:04:07;;;;;;;1.50;0.90;;;18.30;98.20;;;;;;5008462;28;20463;-83
2023/08/13 02:06:35;;;;;;;1.50;1.00;;;18.30;98.20;;;;;;4998786;28;21001;-83
2023/08/13 02:09:02;;;;;;;1.50;0.90;;;18.30;98.20;;;;;;5008651;28;20468;-83
2023/08/13 02:11:29;;;;;;;1.50;0.90;;;18.20;98.20;;;;;;4998453;28;20717;-82
2023/08/13 02:13:58;;;;;;;1.50;0.90;;;18.20;98.20;;;;;;5007571;28;20972;-82
2023/08/13 02:16:25;;;;;;;1.50;1.00;;;18.10;98.20;;;;;;4999370;28;20559;-83
2023/08/13 02:18:52;;;;;;;1.50;1.00;;;18.10;98.20;;;;;;5008384;28;20868;-83
2023/08/13 02:21:20;;;;;;;1.50;0.90;;;18.10;98.20;;;;;;4998710;28;21009;-83
2023/08/13 02:23:46;;;;;;;1.50;1.00;;;18.10;98.20;;;;;;5008591;28;20468;-83
2023/08/13 02:26:14;;;;;;;1.50;0.90;;;18.00;98.20;;;;;;4997564;28;20518;-83
2023/08/13 02:28:43;;;;;;;1.50;1.00;;;18.00;98.20;;;;;;5010535;28;20899;-83
2023/08/13 02:31:11;;;;;;;1.50;0.90;;;18.00;98.20;;;;;;4997806;28;21104;-83
2023/08/13 02:33:38;;;;;;;1.50;0.90;;;18.00;98.20;;;;;;5007983;28;20490;-83
2023/08/13 02:36:33;;;;;;;1.50;1.00;;;18.00;98.20;;;;;;5007649;28;20507;-83
2023/08/13 02:39:00;;;;;;;1.50;0.90;;;18.00;98.20;;;;;;4962817;28;20479;-83
2023/08/13 02:41:27;;;;;;;1.50;1.00;;;17.90;98.20;;;;;;4996510;28;20851;-82
2023/08/13 02:43:55;;;;;;;1.50;0.90;;;17.90;98.20;;;;;;5006579;28;21097;-83
2023/08/13 02:46:25;;;;;;;1.50;0.97;;;17.90;98.20;;;;;;4998745;28;20682;-83
2023/08/13 02:48:54;;;;;;;1.50;1.00;;;17.80;98.20;;;;;;5008443;28;20879;-83
2023/08/13 02:51:22;;;;;;;1.50;0.90;;;17.80;98.20;;;;;;4997830;28;20889;-84
2023/08/13 02:53:49;;;;;;;1.50;0.90;;;17.80;98.20;;;;;;5006182;28;20456;-83
2023/08/13 02:56:16;;;;;;;1.50;0.90;;;17.70;98.20;;;;;;4997640;28;20739;-83
2023/08/13 02:58:44;;;;;;;1.50;0.90;;;17.70;98.20;;;;;;5007873;28;20456;-82
2023/08/13 03:01:14;;;;;;;1.53;1.00;;;17.70;98.20;;;;;;4994282;28;20615;-82
2023/08/13 03:03:44;;;;;;;1.50;1.00;;;17.70;98.20;;;;;;5006996;28;20519;-82
2023/08/13 03:06:11;;;;;;;1.50;1.00;;;17.60;98.20;;;;;;4996876;28;20946;-83
2023/08/13 03:08:38;;;;;;;1.57;1.00;;;17.60;98.20;;;;;;5009754;28;20841;-83
2023/08/13 03:11:05;;;;;;;1.50;0.90;;;17.60;98.20;;;;;;5001169;28;20491;-82
2023/08/13 03:13:32;;;;;;;1.50;1.00;;;17.50;98.20;;;;;;5009823;28;20555;-83
2023/08/13 03:15:59;;;;;;;1.50;1.00;;;17.50;98.20;;;;;;5001898;28;20488;-83
2023/08/13 03:18:25;;;;;;;1.50;1.00;;;17.50;98.20;;;;;;5011805;28;20452;-83
2023/08/13 03:20:54;;;;;;;1.50;1.00;;;17.40;98.20;;;;;;5002128;28;20543;-83
2023/08/13 03:23:21;;;;;;;1.50;1.00;;;17.40;98.20;;;;;;5009106;28;20518;-83
2023/08/13 03:25:48;;;;;;;1.53;1.00;;;17.40;98.20;;;;;;5009697;28;20516;-83
2023/08/13 03:28:15;;;;;;;1.50;1.00;;;17.30;98.20;;;;;;5016816;28;20468;-82
2023/08/13 03:30:41;;;;;;;1.53;1.00;;;17.30;98.20;;;;;;5011977;28;20897;-83
2023/08/13 03:33:09;;;;;;;1.60;1.00;;;17.30;98.20;;;;;;4996824;28;20483;-83
2023/08/13 03:39:11;;;;;;;1.50;0.93;;;17.20;98.20;;;;;;4967704;28;20563;-83
2023/08/13 03:41:38;;;;;;;1.70;1.20;;;17.10;98.20;;;;;;5001966;28;20487;-83
2023/08/13 03:44:05;;;;;;;1.50;0.90;;;17.10;98.20;;;;;;5011112;28;20842;-83
2023/08/13 03:46:33;;;;;;;1.50;1.00;;;17.10;98.20;;;;;;5002006;28;20997;-83
2023/08/13 03:49:00;;;;;;;1.60;1.00;;;17.10;98.20;;;;;;5010325;28;20464;-82
2023/08/13 03:51:27;;;;;;;1.50;1.00;;;17.10;98.20;;;;;;5000756;28;20476;-82
2023/08/13 03:53:54;;;;;;;1.50;1.00;;;17.10;98.20;;;;;;5011906;28;20958;-82
2023/08/13 03:56:23;;;;;;;1.50;0.90;;;17.10;98.20;;;;;;5001084;28;20476;-83
2023/08/13 03:58:50;;;;;;;1.50;0.90;;;17.00;98.20;;;;;;5008532;28;20466;-83
2023/08/13 04:01:17;;;;;;;1.50;1.00;;;17.00;98.20;;;;;;4999030;28;20563;-83
2023/08/13 04:03:44;;;;;;;1.50;1.00;;;17.00;98.20;;;;;;5011921;28;20460;-83
2023/08/13 04:06:11;;;;;;;1.53;1.00;;;17.00;98.20;;;;;;5000371;28;20562;-83
2023/08/13 04:08:38;;;;;;;1.50;1.00;;;16.90;98.20;;;;;;5011984;28;20732;-83
2023/08/13 04:11:05;;;;;;;1.53;1.00;;;16.90;98.20;;;;;;5000078;28;20500;-83
2023/08/13 04:13:36;;;;;;;1.50;1.00;;;16.90;98.20;;;;;;5008461;28;20551;-83
2023/08/13 04:16:03;;;;;;;1.50;0.90;;;16.90;98.20;;;;;;5001771;28;20472;-83
2023/08/13 04:18:30;;;;;;;1.50;1.00;;;16.90;98.20;;;;;;5009778;28;20946;-84
2023/08/13 04:20:57;;;;;;;1.50;0.90;;;16.90;98.20;;;;;;5002642;28;20807;-84
2023/08/13 04:23:24;;;;;;;1.50;0.97;;;16.80;98.20;;;;;;5014627;28;21082;-83
2023/08/13 04:25:52;;;;;;;1.50;0.90;;;16.80;98.20;;;;;;5003014;28;20801;-83
2023/08/13 04:28:19;;;;;;;1.57;1.00;;;16.80;98.20;;;;;;5010039;28;20483;-83
2023/08/13 04:30:53;;;;;;;1.50;1.00;;;16.80;98.20;;;;;;5015022;28;20461;-83
2023/08/13 04:33:21;;;;;;;1.50;0.93;;;16.80;98.20;;;;;;4984890;28;20893;-83
2023/08/13 04:39:05;;;;;;;1.50;0.90;;;16.80;98.20;;;;;;5262052;23;20912;-85
2023/08/13 04:41:32;;;;;;;1.57;1.00;;;16.80;98.20;;;;;;5021778;28;20550;-84
2023/08/13 04:43:59;;;;;;;1.50;1.00;;;16.80;98.20;;;;;;5012869;28;20896;-85
2023/08/13 04:46:30;;;;;;;1.50;1.00;;;16.80;98.20;;;;;;5006412;28;20571;-85
2023/08/13 04:48:57;;;;;;;1.50;1.00;;;16.80;98.20;;;;;;5011225;28;20523;-85
2023/08/13 04:51:24;;;;;;;1.50;1.00;;;16.80;98.20;;;;;;5006888;28;20484;-85
2023/08/13 04:53:51;;;;;;;1.50;1.00;;;16.80;98.20;;;;;;5017545;28;20926;-85
2023/08/13 04:56:17;;;;;;;1.50;0.90;;;16.90;98.20;;;;;;5008963;28;20522;-85
2023/08/13 04:58:44;;;;;;;1.50;0.90;;;16.90;98.20;;;;;;5018540;28;20559;-85
2023/08/13 05:01:11;;;;;;;1.50;0.93;;;16.90;98.20;;;;;;5008002;28;20587;-85
2023/08/13 05:03:57;;;;;;;1.50;1.00;;;16.90;98.20;;;;;;5016840;28;20519;-85
2023/08/13 05:06:30;;;;;;;1.50;0.90;;;16.90;98.20;;;;;;5004200;28;20496;-85
2023/08/13 05:08:57;;;;;;;1.50;0.90;;;17.00;98.20;;;;;;5016980;28;20482;-85
2023/08/13 05:11:31;;;;;;;1.50;1.00;;;17.00;98.20;;;;;;5002189;28;20499;-85
2023/08/13 05:13:58;;;;;;;1.50;0.90;;;17.00;98.20;;;;;;5013831;28;20465;-84
2023/08/13 05:16:25;;;;;;;1.50;0.90;;;17.10;98.20;;;;;;5004549;28;20541;-85
2023/08/13 05:18:52;;;;;;;1.50;0.90;;;17.10;98.20;;;;;;5017762;28;20494;-85
2023/08/13 05:21:20;;;;;;;1.50;1.00;;;17.20;98.20;;;;;;5006600;28;20503;-85
2023/08/13 05:23:47;;;;;;;1.50;1.00;;;17.30;98.20;;;;;;5017417;28;20487;-85
2023/08/13 05:26:14;;;;;;;1.50;0.90;;;17.30;98.20;;;;;;5009179;28;20476;-85
2023/08/13 05:28:41;;;;;;;1.50;0.90;;;17.30;98.20;;;;;;5018720;28;20475;-85
2023/08/13 05:31:11;;;;;;;1.50;1.00;;;17.40;98.20;;;;;;5006839;28;20484;-85
2023/08/13 05:33:44;;;;;;;1.50;0.90;;;17.40;98.20;;;;;;5018768;28;20513;-85
2023/08/13 05:36:11;;;;;;;1.50;0.90;;;17.50;98.20;;;;;;5006874;28;20547;-85
2023/08/13 05:38:54;;;;;;;1.50;0.90;;;17.60;98.20;;;;;;5014220;28;20464;-85
2023/08/13 05:41:21;;;;;;;1.50;1.00;;;17.60;98.20;;;;;;5003909;28;20816;-85
2023/08/13 05:43:48;;;;;;;1.53;1.00;;;17.70;98.20;;;;;;5017356;28;20901;-84
2023/08/13 05:46:15;;;;;;;1.50;0.93;;;17.70;98.20;;;;;;5006735;28;20694;-85
2023/08/13 05:48:42;;;;;;;1.50;0.90;;;17.70;98.20;;;;;;5016235;28;21025;-84
2023/08/13 05:51:09;;;;;;;1.50;0.90;;;17.80;98.20;;;;;;5007646;28;20542;-84
2023/08/13 05:53:36;;;;;;;1.50;0.90;;;17.80;98.20;;;;;;5012451;28;20503;-85
2023/08/13 05:56:04;;;;;;;1.50;0.90;;;17.90;98.20;;;;;;5006640;28;20484;-84
2023/08/13 05:58:31;;;;;;;1.50;0.90;;;17.90;98.20;;;;;;5020350;28;20467;-84
2023/08/13 06:00:58;;;;;;;1.50;0.93;;;18.00;98.20;;;;;;5006099;28;20460;-84
2023/08/13 06:03:24;;;;;;;1.50;0.90;;;18.00;98.20;;;;;;5016744;28;20480;-84
2023/08/13 06:05:51;;;;;;;1.50;0.97;;;18.10;98.20;;;;;;5005680;28;20488;-85
2023/08/13 06:08:18;;;;;;;1.50;0.90;;;18.10;98.20;;;;;;5015788;28;20472;-85
2023/08/13 06:10:45;;;;;;;1.57;1.00;;;18.20;98.20;;;;;;5016516;28;20468;-85
2023/08/13 06:13:14;;;;;;;1.50;0.90;;;18.30;98.20;;;;;;4988787;28;20476;-85
2023/08/13 06:15:41;;;;;;;1.50;0.90;;;18.40;98.20;;;;;;5015050;28;20563;-85
2023/08/13 06:18:28;;;;;;;1.50;0.97;;;18.50;98.20;;;;;;5002509;28;20979;-85
2023/08/13 06:24:24;;;;;;;1.50;0.90;;;18.70;98.20;;;;;;5096336;23;20914;-86
2023/08/13 06:26:51;;;;;;;1.50;0.90;;;18.80;98.20;;;;;;5028616;28;21088;-85
2023/08/13 06:29:19;;;;;;;1.50;0.90;;;18.90;98.20;;;;;;5037468;28;20476;-85
2023/08/13 06:31:46;;;;;;;1.53;0.90;;;19.00;98.20;;;;;;5037371;28;20503;-85
2023/08/13 06:34:14;;;;;;;1.50;0.90;;;19.00;98.20;;;;;;5057401;28;20549;-85
2023/08/13 06:36:41;;;;;;;1.50;0.90;;;19.10;98.20;;;;;;5042385;28;20477;-85
2023/08/13 06:39:08;;;;;;;1.50;0.90;;;19.20;98.20;;;;;;5055619;28;20486;-85
2023/08/13 06:44:19;;;;;;;1.50;0.90;;;19.30;98.20;;;;;;5007139;28;20471;-82
2023/08/13 06:49:58;;;;;;;1.50;0.90;;;19.40;98.20;;;;;;5013302;28;20534;-84
2023/08/13 06:52:28;;;;;;;1.50;0.90;;;19.50;98.20;;;;;;5023098;28;20836;-84
2023/08/13 06:54:55;;;;;;;1.50;0.90;;;19.60;98.20;;;;;;5026415;28;20459;-84
2023/08/13 06:57:22;;;;;;;1.50;0.90;;;19.70;98.20;;;;;;5011542;28;20490;-84
2023/08/13 07:00:02;;;;;;;1.50;0.90;;;19.80;98.20;;;;;;5024203;28;20491;-84
2023/08/13 07:02:29;;;;;;;1.50;0.90;;;19.80;98.20;;;;;;5010498;28;20483;-84
2023/08/13 07:04:56;;;;;;;1.50;0.90;;;19.90;98.20;;;;;;5022162;28;20509;-84
2023/08/13 07:07:23;;;;;;;1.53;0.90;;;20.00;98.20;;;;;;5011785;28;20471;-85
2023/08/13 07:09:50;;;;;;;1.50;0.90;;;20.20;98.20;;;;;;5020896;28;20464;-85
2023/08/13 07:12:17;;;;;;;1.50;0.90;;;20.30;98.20;;;;;;5009163;28;20559;-85
2023/08/13 07:14:44;;;;;;;1.50;0.90;;;20.40;98.20;;;;;;5021415;28;20539;-85
2023/08/13 07:17:12;;;;;;;1.53;0.90;;;20.50;98.20;;;;;;5007486;28;20519;-85
2023/08/13 07:19:41;;;;;;;1.53;0.90;;;20.50;98.20;;;;;;5019736;28;20460;-84
2023/08/13 07:22:58;;;;;;;1.50;0.90;;;20.60;98.20;;;;;;5006691;28;20563;-85
2023/08/13 07:25:25;;;;;;;1.50;0.93;;;20.70;98.20;;;;;;4967165;28;20959;-85
2023/08/13 07:27:53;;;;;;;1.53;0.90;;;20.80;98.20;;;;;;5009179;28;21010;-84
2023/08/13 07:30:21;;;;;;;1.57;0.90;;;21.00;98.20;;;;;;5017177;28;20993;-85
2023/08/13 07:32:49;;;;;;;1.50;0.90;;;21.00;98.20;;;;;;5006021;28;20578;-84
2023/08/13 07:35:16;;;;;;;1.50;0.90;;;21.10;98.20;;;;;;5015726;28;20476;-85
2023/08/13 07:38:02;;;;;;;1.50;0.90;;;21.10;98.20;;;;;;5004761;28;20514;-85
2023/08/13 07:40:30;;;;;;;1.50;0.90;;;21.20;98.20;;;;;;5019360;28;20468;-85
2023/08/13 07:42:59;;;;;;;1.50;0.90;;;21.20;98.20;;;;;;5023981;22;20598;-84
2023/08/13 07:45:30;;;;;;;1.57;0.90;;;21.30;98.20;;;;;;5020488;28;20472;-84
2023/08/13 07:47:58;;;;;;;2.33;1.53;;;21.30;98.20;;;;;;5013442;28;20493;-83
2023/08/13 07:50:25;;;;;;;1.50;0.90;;;21.40;98.20;;;;;;5012926;28;20862;-84
2023/08/13 07:52:52;;;;;;;1.53;0.90;;;21.40;98.20;;;;;;5025950;28;20547;-84
2023/08/13 07:55:19;;;;;;;1.50;0.90;;;21.50;98.20;;;;;;5015493;28;20479;-84
2023/08/13 07:57:45;;;;;;;1.57;0.90;;;21.60;98.20;;;;;;5001358;28;20486;-84
2023/08/13 08:00:16;;;;;;;1.50;0.90;;;21.80;98.20;;;;;;5006302;28;20571;-83
2023/08/13 08:02:43;;;;;;;1.50;0.90;;;21.90;98.20;;;;;;5008264;28;20484;-84
2023/08/13 08:05:12;;;;;;;1.50;0.90;;;22.10;98.20;;;;;;5008635;28;20526;-83
2023/08/13 08:07:39;;;;;;;1.50;0.90;;;22.30;98.20;;;;;;4990134;28;20491;-84
2023/08/13 08:10:07;;;;;;;1.50;0.90;;;22.40;98.20;;;;;;5010379;28;20526;-84
2023/08/13 08:12:34;;;;;;;1.50;0.90;;;22.50;98.20;;;;;;5012761;28;20514;-82
2023/08/13 08:15:01;;;;;;;1.50;1.00;;;22.50;98.20;;;;;;5009237;28;20464;-84
2023/08/13 08:17:39;;;;;;;1.50;0.80;;;22.60;98.20;;;;;;4993008;28;20483;-83
2023/08/13 08:20:07;;;;;;;1.50;0.83;;;22.70;98.20;;;;;;5009433;28;20466;-83
2023/08/13 08:22:36;;;;;;;1.50;0.90;;;22.90;98.20;;;;;;5343734;23;20501;-82
2023/08/13 08:25:07;;;;;;;1.50;0.90;;;23.10;98.20;;;;;;5050646;28;20517;-82
2023/08/13 08:27:34;;;;;;;1.50;0.80;;;23.20;98.20;;;;;;5037095;28;20478;-82
2023/08/13 08:30:01;;;;;;;1.50;0.80;;;23.40;98.20;;;;;;5049580;28;21040;-83
2023/08/13 08:32:29;;;;;;;1.50;0.90;;;23.50;98.20;;;;;;5031884;28;20486;-82
2023/08/13 08:34:56;;;;;;;1.50;0.90;;;23.60;98.20;;;;;;5027525;28;20455;-83
2023/08/13 08:38:05;;;;;;;1.50;0.80;;;23.80;98.20;;;;;;5015598;28;20546;-83
2023/08/13 08:40:34;;;;;;;1.50;0.80;;;23.90;98.20;;;;;;5005696;28;20993;-84
2023/08/13 08:43:04;;;;;;;1.50;0.87;;;24.10;98.20;;;;;;5028156;28;20502;-83
2023/08/13 08:45:33;;;;;;;1.50;0.90;;;24.30;98.20;;;;;;5028676;28;20478;-83
2023/08/13 08:48:01;;;;;;;2.10;1.23;;;24.40;98.20;;;;;;5021773;28;20483;-82
2023/08/13 08:50:29;;;;;;;1.50;0.90;;;24.50;98.20;;;;;;5028186;28;20464;-81
2023/08/13 08:52:57;;;;;;;1.50;0.90;;;24.30;98.20;;;;;;5020916;28;20514;-82
2023/08/13 08:55:24;;;;;;;1.47;0.80;;;24.20;98.20;;;;;;5028176;28;20469;-82
2023/08/13 08:57:54;;;;;;;1.47;0.80;;;24.20;98.20;;;;;;5026030;28;20483;-81
2023/08/13 09:00:21;;;;;;;1.50;0.80;;;24.20;98.20;;;;;;5029581;28;20469;-81
2023/08/13 09:02:48;;;;;;;1.50;0.80;;;24.10;97.90;;;;;;5013421;28;20491;-81
2023/08/13 09:05:39;;;;;;;1.50;0.80;;;24.00;98.20;;;;;;5025930;28;21091;-82
2023/08/13 09:08:12;;;;;;;1.50;0.90;;;24.00;98.20;;;;;;5030445;28;20558;-81
2023/08/13 09:10:53;;;;;;;1.50;0.90;;;24.00;98.20;;;;;;5025734;28;20996;-82
2023/08/13 09:13:21;;;;;;;1.50;0.80;;;24.10;98.20;;;;;;4997369;28;21061;-81
2023/08/13 09:15:51;;;;;;;1.50;0.90;;;24.20;98.20;;;;;;5014844;28;20459;-81
2023/08/13 09:18:27;;;;;;;1.50;0.90;;;24.40;98.20;;;;;;5029682;28;20558;-82
2023/08/13 09:23:49;;;;;;;1.50;0.90;;;25.00;97.10;;;;;;5267847;23;20498;-82
2023/08/13 09:26:18;;;;;;;1.50;0.80;;;25.20;93.80;;;;;;5035189;28;20953;-82
2023/08/13 09:28:46;;;;;;;1.50;0.90;;;25.30;94.60;;;;;;5042800;28;20462;-80
2023/08/13 09:31:13;;;;;;;1.50;0.90;;;25.50;94.60;;;;;;5030421;28;20474;-80
2023/08/13 09:34:02;;;;;;;1.50;0.90;;;25.60;94.40;;;;;;5039056;28;20482;-81
2023/08/13 09:39:52;;;;;;;1.50;0.80;;;25.90;93.50;;;;;;4999065;28;20450;-80
2023/08/13 09:42:53;;;;;;;1.50;0.90;;;25.90;92.50;;;;;;5033247;28;20478;-80
2023/08/13 09:45:59;;;;;;;1.50;0.90;;;26.00;92.90;;;;;;4982587;28;20583;-82
2023/08/13 09:48:28;;;;;;;1.43;0.80;;;26.10;93.10;;;;;;4951626;28;20518;-82
2023/08/13 09:50:57;;;;;;;1.50;0.80;;;26.20;92.80;;;;;;5017899;28;20881;-81
2023/08/13 09:53:25;;;;;;;1.50;0.90;;;26.30;91.90;;;;;;5045242;28;20489;-82
2023/08/13 09:56:10;;;;;;;1.47;0.80;;;26.40;91.10;;;;;;5034311;28;20729;-81
2023/08/13 09:58:38;;;;;;;1.50;0.83;;;26.40;90.80;;;;;;5041734;28;20453;-81
2023/08/13 10:01:07;;;;;;;1.50;0.87;;;26.50;90.70;;;;;;5036734;28;20787;-81
2023/08/13 10:03:39;;;;;;;1.50;0.80;;;26.50;91.20;;;;;;5047833;28;20490;-82
2023/08/13 10:06:07;;;;;;;1.50;0.80;;;26.40;90.40;;;;;;5046352;28;20673;-81
2023/08/13 10:08:45;;;;;;;1.50;0.90;;;26.40;90.00;;;;;;5048728;28;20544;-80
2023/08/13 10:16:44;;;;;;;1.50;0.90;;;26.50;91.00;;;;;;5028765;28;20478;-80
2023/08/13 10:19:12;;;;;;;1.50;0.90;;;26.60;90.90;;;;;;5041366;28;20466;-81
2023/08/13 10:21:39;;;;;;;1.50;0.90;;;26.80;89.90;;;;;;5031893;28;20568;-81
2023/08/13 10:24:11;;;;;;;1.50;0.90;;;26.80;87.80;;;;;;5029345;28;20522;-82
2023/08/13 10:26:41;;;;;;;1.50;0.80;;;26.80;88.00;;;;;;5035849;22;20502;-82
2023/08/13 10:29:15;;;;;;;1.50;0.80;;;26.90;88.20;;;;;;5039728;28;20494;-84
2023/08/13 10:31:49;;;;;;;1.50;0.80;;;26.80;90.60;;;;;;5027685;28;20482;-83
2023/08/13 10:34:17;;;;;;;1.47;0.90;;;26.90;90.10;;;;;;5043841;28;20466;-84
2023/08/13 10:36:51;;;;;;;1.50;0.90;;;27.00;89.20;;;;;;5038318;28;20719;-83
2023/08/13 10:39:44;;;;;;;1.50;0.80;;;27.00;87.70;;;;;;5044887;28;20539;-83
2023/08/13 10:42:44;;;;;;;1.47;0.80;;;27.00;89.50;;;;;;5032012;28;20486;-84
2023/08/13 10:45:15;;;;;;;1.43;0.80;;;27.00;87.60;;;;;;5046096;28;21281;-84
2023/08/13 10:47:46;;;;;;;1.50;0.80;;;26.90;87.90;;;;;;5030021;28;20521;-84
2023/08/13 10:50:26;;;;;;;1.50;0.80;;;26.80;89.00;;;;;;5047753;28;20468;-83
2023/08/13 10:52:54;;;;;;;1.50;0.80;;;26.90;89.40;;;;;;5028826;28;20486;-84
2023/08/13 10:55:24;;;;;;;1.50;0.83;;;27.00;88.90;;;;;;5048373;28;20521;-85
2023/08/13 10:57:51;;;;;;;1.50;0.90;;;27.10;88.30;;;;;;5037269;28;20572;-83
2023/08/13 11:00:20;;;;;;;1.47;0.80;;;27.20;88.20;;;;;;5052028;28;20633;-84
2023/08/13 11:02:51;;;;;;;1.50;0.80;;;27.30;86.90;;;;;;5030332;28;20828;-83
2023/08/13 11:05:19;;;;;;;1.50;0.90;;;27.30;87.90;;;;;;5048258;28;21670;-83
2023/08/13 11:07:47;;;;;;;1.50;0.80;;;27.30;88.60;;;;;;5026468;28;20575;-83
2023/08/13 11:10:21;;;;;;;1.43;0.80;;;27.30;87.50;;;;;;5048041;28;20991;-83
2023/08/13 11:12:49;;;;;;;1.43;0.80;;;27.20;87.50;;;;;;5030652;28;20817;-84
2023/08/13 11:15:16;;;;;;;1.50;0.90;;;27.10;88.10;;;;;;5050525;28;20450;-83
2023/08/13 11:17:48;;;;;;;1.50;0.80;;;27.10;88.80;;;;;;5030654;28;20478;-83
2023/08/13 11:20:18;;;;;;;1.40;0.80;;;27.10;88.30;;;;;;5047978;28;20850;-83
2023/08/13 11:22:48;;;;;;;1.47;0.80;;;27.10;87.60;;;;;;5032504;28;20545;-84
2023/08/13 11:25:21;;;;;;;1.47;0.80;;;27.10;88.70;;;;;;5052789;28;20968;-85
2023/08/13 11:27:48;;;;;;;1.50;0.80;;;27.10;87.50;;;;;;5032303;28;20951;-84
2023/08/13 11:30:15;;;;;;;1.43;0.80;;;27.10;88.20;;;;;;5051759;28;20522;-84
2023/08/13 11:33:05;;;;;;;1.40;0.80;;;27.00;87.20;;;;;;5043383;28;20501;-83
2023/08/13 11:35:32;;;;;;;1.43;0.80;;;26.90;88.00;;;;;;5045083;28;20465;-85
2023/08/13 11:37:59;;;;;;;1.40;0.83;;;26.70;88.30;;;;;;5034191;28;20499;-85
2023/08/13 11:40:26;;;;;;;1.50;1.10;;;26.70;89.80;;;;;;5053781;28;20795;-84
2023/08/13 11:42:56;;;;;;;1.43;0.90;;;26.80;90.10;;;;;;5040176;28;20490;-84
2023/08/13 11:45:28;;;;;;;1.47;0.90;;;26.80;89.00;;;;;;5049659;28;20568;-86
2023/08/13 11:48:10;;;;;;;1.50;0.80;;;26.80;89.10;;;;;;5033795;28;20528;-84
2023/08/13 11:50:39;;;;;;;1.50;0.90;;;26.80;89.30;;;;;;5052624;28;20469;-85
2023/08/13 11:53:10;;;;;;;1.47;0.80;;;26.80;89.80;;;;;;5029418;28;20559;-84
2023/08/13 11:55:39;;;;;;;1.47;0.87;;;26.70;88.60;;;;;;5048065;28;20462;-85
2023/08/13 11:58:06;;;;;;;1.47;0.80;;;26.60;90.30;;;;;;5032863;28;21041;-84
2023/08/13 12:00:34;;;;;;;1.47;0.90;;;26.60;90.30;;;;;;5050821;28;20466;-85
2023/08/13 12:03:01;;;;;;;1.43;0.80;;;26.80;90.40;;;;;;5035182;28;20520;-85
2023/08/13 12:05:32;;;;;;;1.43;0.80;;;26.90;89.80;;;;;;5056200;28;20575;-85
2023/08/13 12:08:00;;;;;;;1.40;0.80;;;26.90;88.80;;;;;;5030728;28;20497;-86
2023/08/13 12:10:27;;;;;;;1.47;0.87;;;26.80;89.50;;;;;;5051224;28;22223;-84
2023/08/13 12:12:54;;;;;;;1.43;0.80;;;26.70;89.70;;;;;;5033142;28;20487;-84
2023/08/13 12:15:23;;;;;;;1.43;0.80;;;26.70;90.60;;;;;;5047412;28;21023;-85
2023/08/13 12:17:50;;;;;;;1.47;0.80;;;26.80;90.20;;;;;;5037005;28;20485;-85
2023/08/13 12:20:17;;;;;;;1.40;0.80;;;26.90;91.70;;;;;;5048845;28;21023;-85
2023/08/13 12:22:48;;;;;;;1.40;0.80;;;27.10;90.60;;;;;;5033227;28;20593;-85
2023/08/13 12:25:15;;;;;;;1.40;0.80;;;27.10;89.50;;;;;;5054924;28;20466;-85
2023/08/13 12:27:46;;;;;;;1.43;0.80;;;27.00;90.50;;;;;;5041847;28;21030;-85
2023/08/13 12:30:13;;;;;;;1.43;0.90;;;27.00;89.90;;;;;;5055328;28;20475;-83
2023/08/13 12:33:27;;;;;;;1.50;0.80;;;27.10;91.30;;;;;;5041560;28;20550;-83
2023/08/13 12:35:54;;;;;;;1.47;0.80;;;27.10;89.50;;;;;;5050794;28;20454;-86
2023/08/13 12:38:22;;;;;;;1.43;0.80;;;27.30;89.60;;;;;;5059486;28;21007;-85
2023/08/13 12:40:50;;;;;;;1.47;0.80;;;27.50;88.80;;;;;;5050339;28;20907;-84
2023/08/13 12:43:17;;;;;;;1.50;0.80;;;27.60;90.10;;;;;;5040638;28;20511;-83
2023/08/13 12:45:46;;;;;;;1.50;0.80;;;27.70;88.90;;;;;;5049883;28;20587;-84
2023/08/13 12:48:19;;;;;;;1.43;0.80;;;27.70;89.10;;;;;;5024750;28;20645;-85
2023/08/13 12:50:47;;;;;;;1.47;0.80;;;27.80;88.80;;;;;;5056654;28;20472;-85
2023/08/13 12:53:14;;;;;;;1.50;0.90;;;28.00;89.40;;;;;;5046937;28;20694;-85
2023/08/13 12:55:42;;;;;;;1.50;0.80;;;28.10;88.10;;;;;;5051029;28;20888;-84
2023/08/13 12:58:11;;;;;;;1.43;0.80;;;28.20;87.10;;;;;;5035254;28;20517;-85
2023/08/13 13:00:38;;;;;;;1.47;0.80;;;28.10;88.20;;;;;;5046365;28;20561;-85
2023/08/13 13:03:05;;;;;;;1.50;0.80;;;28.10;86.70;;;;;;5025077;28;20492;-84
2023/08/13 13:05:32;;;;;;;1.50;0.80;;;28.10;87.00;;;;;;5047920;28;20866;-83
2023/08/13 13:07:59;;;;;;;1.47;0.90;;;28.10;85.90;;;;;;5035779;28;20516;-84
2023/08/13 13:10:26;;;;;;;1.43;0.80;;;27.90;84.40;;;;;;5050283;28;20635;-84
2023/08/13 13:12:54;;;;;;;1.47;0.90;;;27.80;85.20;;;;;;5029289;28;20498;-83
2023/08/13 13:15:22;;;;;;;1.43;0.80;;;27.80;86.30;;;;;;5043976;28;20449;-84
2023/08/13 13:17:49;;;;;;;1.50;0.80;;;27.80;85.90;;;;;;5035334;28;20488;-83
2023/08/13 13:20:18;;;;;;;1.43;0.80;;;27.80;85.50;;;;;;5047896;28;20466;-84
2023/08/13 13:22:45;;;;;;;1.47;0.80;;;27.90;86.90;;;;;;5031679;28;20483;-84
2023/08/13 13:25:12;;;;;;;1.40;0.90;;;27.90;84.40;;;;;;5048718;28;20498;-83
2023/08/13 13:27:39;;;;;;;1.50;0.80;;;27.80;83.80;;;;;;5034355;28;20986;-84